Time;durP1;ratioP1;P1;durP2;ratioP2;P2;SDS_P1;SDS_P2;PMS_P1;PMS_P2;Temp;Humidity;BMP_temperature;BMP_pressure;BME280_temperature;BME280_humidity;BME280_pressure;Samples;Min_cycle;Max_cycle;Signal;HPM_P1;HPM_P2
2022/07/27 00:01:02;;;;;;;5.28;1.50;;;15.10;99.90;;;;;;4855637;29;20123;-77
2022/07/27 00:03:28;;;;;;;4.18;1.40;;;15.10;99.90;;;;;;4870914;29;20513;-76
2022/07/27 00:05:54;;;;;;;6.18;1.80;;;15.10;99.90;;;;;;4839118;29;20076;-76
2022/07/27 00:08:21;;;;;;;4.63;1.13;;;15.10;99.90;;;;;;4847748;29;20037;-77
2022/07/27 00:10:46;;;;;;;5.90;1.30;;;15.10;99.90;;;;;;4847054;29;20042;-76
2022/07/27 00:13:12;;;;;;;9.75;1.25;;;15.10;99.90;;;;;;4863302;29;20037;-77
2022/07/27 00:30:52;;;;;;;3.60;1.40;;;14.90;99.90;;;;;;5650422;23;20115;-84
2022/07/27 00:33:18;;;;;;;4.88;1.38;;;14.90;99.90;;;;;;5297175;23;20144;-76
2022/07/27 00:35:50;;;;;;;4.50;1.27;;;14.90;99.90;;;;;;5705269;23;20221;31
2022/07/27 00:38:16;;;;;;;4.22;1.40;;;14.90;99.90;;;;;;4856266;24;20585;-76
2022/07/27 00:40:41;;;;;;;2.83;1.20;;;14.90;99.90;;;;;;4865720;29;20128;-77
2022/07/27 00:43:07;;;;;;;3.88;1.20;;;14.80;99.90;;;;;;4850965;29;20183;-76
2022/07/27 00:45:33;;;;;;;8.73;1.65;;;14.80;99.90;;;;;;4879294;29;20088;-76
2022/07/27 00:47:58;;;;;;;4.88;1.38;;;14.80;99.90;;;;;;4834474;29;20053;-76
2022/07/27 00:50:24;;;;;;;4.05;1.50;;;14.80;99.90;;;;;;4865390;29;20410;-76
2022/07/27 00:52:50;;;;;;;4.25;1.33;;;14.80;99.90;;;;;;4864245;29;20056;-76
2022/07/27 00:55:16;;;;;;;9.23;1.45;;;14.80;99.90;;;;;;4845263;29;20037;-76
2022/07/27 00:57:42;;;;;;;3.60;1.20;;;14.80;99.90;;;;;;4852075;29;20052;-76
2022/07/27 01:00:09;;;;;;;5.80;1.40;;;14.70;99.90;;;;;;4849351;29;20055;-76
2022/07/27 01:02:35;;;;;;;5.97;1.48;;;14.70;99.90;;;;;;4880966;29;20045;-76
2022/07/27 01:05:01;;;;;;;7.45;1.92;;;14.70;99.90;;;;;;4864485;29;20044;-76
2022/07/27 01:07:27;;;;;;;6.32;1.38;;;14.60;99.90;;;;;;4864564;29;21022;-76
2022/07/27 01:09:55;;;;;;;4.32;1.10;;;14.60;99.90;;;;;;4881639;29;20072;-75
2022/07/27 01:12:21;;;;;;;5.22;1.30;;;14.60;99.90;;;;;;4833354;29;20092;-76
2022/07/27 01:14:48;;;;;;;3.80;1.20;;;14.60;99.90;;;;;;4863428;29;20053;-76
2022/07/27 01:17:15;;;;;;;3.08;1.40;;;14.50;99.90;;;;;;4863528;29;20135;-76
2022/07/27 01:19:41;;;;;;;4.72;1.77;;;14.50;99.90;;;;;;4880289;29;20080;-76
2022/07/27 01:22:07;;;;;;;5.30;1.60;;;14.60;99.90;;;;;;4846267;29;20084;-76
2022/07/27 01:24:33;;;;;;;3.88;1.30;;;14.50;99.90;;;;;;4858958;29;20486;-76
2022/07/27 01:27:03;;;;;;;5.28;1.55;;;14.50;99.90;;;;;;4848929;29;20051;-76
2022/07/27 01:29:30;;;;;;;4.93;1.42;;;14.40;99.90;;;;;;4881167;29;20041;-76
2022/07/27 01:31:55;;;;;;;4.78;1.48;;;14.40;99.90;;;;;;4860797;29;20052;-76
2022/07/27 01:34:21;;;;;;;5.82;1.50;;;14.40;99.90;;;;;;4864603;29;20132;-76
2022/07/27 01:36:48;;;;;;;3.42;1.30;;;14.40;99.90;;;;;;4856795;29;20054;-76
2022/07/27 01:39:15;;;;;;;3.47;1.58;;;14.40;99.90;;;;;;4858238;29;20053;-76
2022/07/27 01:41:40;;;;;;;5.85;1.58;;;14.30;99.90;;;;;;4853485;29;20081;-76
2022/07/27 01:44:06;;;;;;;5.70;1.40;;;14.30;99.90;;;;;;4853786;29;20069;-76
2022/07/27 01:46:32;;;;;;;4.10;1.80;;;14.30;99.90;;;;;;4828187;29;20045;-76
2022/07/27 01:48:57;;;;;;;5.05;2.10;;;14.40;99.90;;;;;;4845433;29;20651;-76
2022/07/27 01:51:23;;;;;;;3.65;1.50;;;14.30;99.90;;;;;;4844350;29;20068;-76
2022/07/27 01:53:49;;;;;;;5.63;1.60;;;14.20;99.90;;;;;;4845480;29;20128;-76
2022/07/27 01:56:15;;;;;;;3.08;1.33;;;14.20;99.90;;;;;;4833971;29;20509;-76
2022/07/27 01:58:42;;;;;;;3.53;1.40;;;14.20;99.90;;;;;;4839433;29;20046;-76
2022/07/27 02:01:07;;;;;;;5.20;1.60;;;14.10;99.90;;;;;;4847774;29;20254;-76
2022/07/27 02:03:34;;;;;;;3.95;1.60;;;14.10;99.90;;;;;;4851326;29;20096;-76
2022/07/27 02:05:59;;;;;;;5.22;1.40;;;14.10;99.90;;;;;;4846365;29;20125;-77
2022/07/27 02:08:25;;;;;;;3.80;1.63;;;14.10;99.90;;;;;;4843726;29;20121;-76
2022/07/27 02:13:35;;;;;;;6.43;1.60;;;14.00;99.90;;;;;;4845517;29;20106;-76
2022/07/27 02:16:01;;;;;;;4.43;1.52;;;14.00;99.90;;;;;;4827191;29;20050;-77
2022/07/27 02:18:27;;;;;;;4.60;1.30;;;13.90;99.90;;;;;;4839516;29;20052;-76
2022/07/27 02:20:53;;;;;;;3.38;1.95;;;13.90;99.90;;;;;;4842731;29;20487;-76
2022/07/27 02:23:18;;;;;;;5.40;2.17;;;13.90;99.90;;;;;;4842874;29;20054;-76
2022/07/27 02:25:44;;;;;;;5.07;1.63;;;13.90;99.90;;;;;;4839675;29;20474;-76
2022/07/27 02:28:10;;;;;;;4.28;1.63;;;13.80;99.90;;;;;;4841164;29;20413;-76
2022/07/27 02:30:35;;;;;;;5.97;2.00;;;13.80;99.90;;;;;;4846205;29;20037;-76
2022/07/27 02:33:01;;;;;;;3.83;1.58;;;13.80;99.90;;;;;;4828659;29;20045;-76
2022/07/27 02:35:28;;;;;;;2.47;1.35;;;13.80;99.90;;;;;;4834803;29;20049;-76
2022/07/27 02:37:53;;;;;;;4.55;1.77;;;13.70;99.90;;;;;;4853387;29;20111;-76
2022/07/27 02:40:20;;;;;;;6.05;1.90;;;13.70;99.90;;;;;;4841871;29;20053;-76
2022/07/27 02:42:46;;;;;;;7.40;1.80;;;13.70;99.90;;;;;;4851782;29;20041;-76
2022/07/27 02:45:15;;;;;;;3.33;1.90;;;13.70;99.90;;;;;;4840279;29;20148;-76
2022/07/27 02:47:41;;;;;;;3.58;1.73;;;13.60;99.90;;;;;;4842880;29;20413;-76
2022/07/27 02:50:08;;;;;;;5.80;2.45;;;13.70;99.90;;;;;;4842618;29;20045;-76
2022/07/27 02:52:34;;;;;;;3.75;1.55;;;13.60;99.90;;;;;;4842220;29;20042;-76
2022/07/27 02:55:00;;;;;;;4.65;2.10;;;13.60;99.90;;;;;;4826520;29;20450;-76
2022/07/27 02:57:26;;;;;;;4.78;1.65;;;13.60;99.90;;;;;;4812452;29;20370;-76
2022/07/27 02:59:52;;;;;;;6.57;2.03;;;13.50;99.90;;;;;;4855673;29;20046;-76
2022/07/27 03:02:17;;;;;;;8.48;1.90;;;13.50;99.90;;;;;;4827337;29;20037;-75
2022/07/27 03:04:43;;;;;;;4.30;1.63;;;13.50;99.90;;;;;;4856412;29;20038;-76
2022/07/27 03:07:09;;;;;;;4.60;1.73;;;13.40;99.90;;;;;;4810663;29;20410;-76
2022/07/27 03:09:35;;;;;;;3.92;1.63;;;13.40;99.90;;;;;;4832782;29;20170;-76
2022/07/27 03:12:01;;;;;;;6.57;1.83;;;13.40;99.90;;;;;;4839521;29;20106;-76
2022/07/27 03:14:27;;;;;;;4.60;1.60;;;13.40;99.90;;;;;;4830382;29;20045;-76
2022/07/27 03:16:53;;;;;;;7.05;1.90;;;13.30;99.90;;;;;;4842201;29;20418;-76
2022/07/27 03:19:19;;;;;;;7.22;1.70;;;13.30;99.90;;;;;;4844434;29;20517;-76
2022/07/27 03:21:44;;;;;;;4.30;1.70;;;13.30;99.90;;;;;;4844469;29;20393;-76
2022/07/27 03:24:10;;;;;;;5.20;1.63;;;13.30;99.90;;;;;;4840191;29;20049;-76
2022/07/27 03:26:36;;;;;;;4.93;2.08;;;13.20;99.90;;;;;;4839828;29;20050;-76
2022/07/27 03:29:02;;;;;;;5.82;1.60;;;13.20;99.90;;;;;;4841654;29;20050;-76
2022/07/27 03:31:27;;;;;;;4.28;1.92;;;13.20;99.90;;;;;;4839642;29;20057;-76
2022/07/27 03:33:53;;;;;;;5.70;1.52;;;13.20;99.90;;;;;;4844304;29;20041;-76
2022/07/27 03:36:19;;;;;;;6.43;2.00;;;13.20;99.90;;;;;;4826975;29;20140;-76
2022/07/27 03:38:44;;;;;;;6.38;1.88;;;13.20;99.90;;;;;;4856909;29;20050;-76
2022/07/27 03:41:10;;;;;;;5.47;1.85;;;13.10;99.90;;;;;;4844469;29;20061;-76
2022/07/27 03:43:36;;;;;;;3.78;1.67;;;13.10;99.90;;;;;;4840326;29;20102;-76
2022/07/27 03:46:01;;;;;;;3.22;1.80;;;13.10;99.90;;;;;;4830095;29;20042;-76
2022/07/27 03:48:28;;;;;;;5.82;1.67;;;13.00;99.90;;;;;;4844324;29;20037;-76
2022/07/27 03:50:53;;;;;;;3.80;1.63;;;13.00;99.90;;;;;;4828780;29;20501;-76
2022/07/27 03:53:20;;;;;;;5.90;1.52;;;13.00;99.90;;;;;;4826860;29;20050;-77
2022/07/27 03:55:50;;;;;;;4.43;1.60;;;13.00;99.90;;;;;;4828251;29;20041;-76
2022/07/27 03:58:16;;;;;;;1.70;1.40;;;13.00;99.90;;;;;;4841681;29;20090;-76
2022/07/27 04:00:43;;;;;;;4.32;1.50;;;13.00;99.90;;;;;;4843527;29;20382;-76
2022/07/27 04:03:09;;;;;;;9.38;1.75;;;13.00;99.90;;;;;;4843004;29;20053;-76
2022/07/27 04:05:35;;;;;;;3.55;1.40;;;12.90;99.90;;;;;;4854861;29;20495;-76
2022/07/27 04:08:01;;;;;;;5.38;1.50;;;12.90;99.90;;;;;;4843427;29;20509;-76
2022/07/27 04:10:26;;;;;;;3.65;1.80;;;12.90;99.90;;;;;;4844122;29;20558;-76
2022/07/27 04:12:52;;;;;;;5.40;1.90;;;12.90;99.90;;;;;;4827293;29;20080;-76
2022/07/27 04:15:20;;;;;;;4.07;1.60;;;12.90;99.90;;;;;;4826267;29;20045;-76
2022/07/27 04:17:46;;;;;;;4.53;1.60;;;12.80;99.90;;;;;;4826481;29;20090;-77
2022/07/27 04:20:12;;;;;;;5.68;1.77;;;12.80;99.90;;;;;;4856792;29;20042;-76
2022/07/27 04:22:38;;;;;;;6.03;1.55;;;12.80;99.90;;;;;;4837275;29;20053;-76
2022/07/27 04:25:04;;;;;;;6.07;1.50;;;12.80;99.90;;;;;;4857278;29;20517;-76
2022/07/27 04:27:30;;;;;;;4.68;1.67;;;12.80;99.90;;;;;;4852777;29;20125;-76
2022/07/27 04:29:55;;;;;;;2.63;1.77;;;12.80;99.90;;;;;;4857890;29;20128;-76
2022/07/27 04:32:21;;;;;;;3.83;1.70;;;12.70;99.90;;;;;;4855944;29;20433;-76
2022/07/27 04:34:47;;;;;;;4.57;1.73;;;12.70;99.90;;;;;;4827902;29;20042;-76
2022/07/27 04:37:12;;;;;;;4.82;2.10;;;12.60;99.90;;;;;;4843622;29;20049;-76
2022/07/27 04:39:38;;;;;;;3.92;2.00;;;12.60;99.90;;;;;;4842531;29;20084;-76
2022/07/27 04:42:04;;;;;;;4.07;1.75;;;12.50;99.90;;;;;;4843882;29;20069;-75
2022/07/27 04:44:30;;;;;;;5.22;1.88;;;12.50;99.90;;;;;;4843681;29;20041;-77
2022/07/27 04:46:55;;;;;;;3.25;1.98;;;12.50;99.90;;;;;;4833488;29;20048;-76
2022/07/27 04:49:21;;;;;;;4.30;2.35;;;12.50;99.90;;;;;;4841237;29;20540;-76
2022/07/27 04:51:47;;;;;;;4.30;2.05;;;12.50;99.90;;;;;;4842370;29;20096;-76
2022/07/27 04:54:13;;;;;;;3.10;1.95;;;12.50;99.90;;;;;;4843576;29;20060;-76
2022/07/27 04:56:38;;;;;;;4.85;2.15;;;12.50;99.90;;;;;;4837167;29;20046;-76
2022/07/27 04:59:04;;;;;;;7.07;1.90;;;12.50;99.90;;;;;;4827037;29;20034;-76
2022/07/27 05:01:30;;;;;;;4.82;2.25;;;12.50;99.90;;;;;;4843796;29;20498;-76
2022/07/27 05:03:55;;;;;;;6.85;2.25;;;12.60;99.90;;;;;;4837522;29;20077;-76
2022/07/27 05:06:21;;;;;;;5.90;2.10;;;12.60;99.90;;;;;;4852502;29;20041;-76
2022/07/27 05:08:47;;;;;;;3.25;2.50;;;12.60;99.90;;;;;;4857138;29;20048;-76
2022/07/27 05:11:13;;;;;;;6.13;2.10;;;12.60;99.90;;;;;;4840582;29;20526;-76
2022/07/27 05:13:39;;;;;;;4.80;2.03;;;12.60;99.90;;;;;;4849408;29;20050;-76
2022/07/27 05:16:09;;;;;;;7.07;1.90;;;12.60;99.90;;;;;;4843252;29;20134;-76
2022/07/27 05:18:38;;;;;;;7.70;1.60;;;12.60;99.90;;;;;;4840723;29;20041;-76
2022/07/27 05:21:04;;;;;;;4.43;2.00;;;12.70;99.90;;;;;;4832753;29;20184;-75
2022/07/27 05:23:30;;;;;;;2.85;1.70;;;12.70;99.90;;;;;;4853442;29;20041;-76
2022/07/27 05:25:56;;;;;;;4.32;2.00;;;12.70;99.90;;;;;;4811805;29;20042;-76
2022/07/27 05:28:21;;;;;;;4.90;2.03;;;12.80;99.90;;;;;;4829559;29;20049;-76
2022/07/27 05:30:47;;;;;;;5.22;1.98;;;12.80;99.90;;;;;;4849953;29;20045;-76
2022/07/27 05:33:13;;;;;;;4.07;2.00;;;12.90;99.90;;;;;;4845837;29;20041;-79
2022/07/27 05:35:38;;;;;;;4.10;1.83;;;12.90;99.90;;;;;;4846357;29;20037;-76
2022/07/27 05:38:04;;;;;;;5.28;2.10;;;12.90;99.90;;;;;;4831035;29;20053;-76
2022/07/27 05:40:30;;;;;;;9.77;1.80;;;13.00;99.90;;;;;;4862175;29;20049;-76
2022/07/27 05:42:56;;;;;;;4.80;1.80;;;13.10;99.90;;;;;;4845180;29;20046;-76
2022/07/27 05:45:22;;;;;;;5.60;1.45;;;13.10;99.90;;;;;;4845600;29;20042;-76
2022/07/27 05:47:47;;;;;;;5.78;1.58;;;13.20;99.90;;;;;;4845813;29;20132;-76
2022/07/27 05:50:14;;;;;;;4.88;1.48;;;13.20;99.90;;;;;;4852638;29;20509;-76
2022/07/27 05:52:40;;;;;;;3.10;1.55;;;13.40;99.90;;;;;;4845708;29;20037;-76
2022/07/27 05:55:06;;;;;;;5.70;1.17;;;13.40;99.90;;;;;;4842839;29;20364;-76
2022/07/27 05:57:32;;;;;;;6.15;1.98;;;13.50;99.90;;;;;;4859407;29;20046;-77
2022/07/27 06:00:00;;;;;;;8.40;2.03;;;13.60;99.90;;;;;;4846570;29;20554;-76
2022/07/27 06:02:27;;;;;;;6.63;1.60;;;13.70;99.90;;;;;;4849585;29;20049;-76
2022/07/27 06:04:53;;;;;;;5.93;1.52;;;13.80;99.90;;;;;;4838049;29;20045;-76
2022/07/27 06:10:05;;;;;;;6.57;1.88;;;14.00;99.90;;;;;;4861611;29;20049;-76
2022/07/27 06:12:39;;;;;;;5.38;1.50;;;14.00;99.90;;;;;;4846142;29;20077;-76
2022/07/27 06:15:06;;;;;;;5.93;1.70;;;14.10;99.90;;;;;;4855115;29;20049;-76
2022/07/27 06:17:32;;;;;;;5.55;1.80;;;14.20;99.90;;;;;;4855656;29;20056;-76
2022/07/27 06:19:58;;;;;;;7.22;1.70;;;14.30;99.90;;;;;;4837318;29;20050;-76
2022/07/27 06:22:23;;;;;;;5.85;1.55;;;14.30;99.90;;;;;;4825227;29;20050;-76
2022/07/27 06:24:49;;;;;;;7.07;2.03;;;14.40;99.90;;;;;;4829531;29;20474;-76
2022/07/27 06:27:15;;;;;;;9.80;1.75;;;14.50;99.90;;;;;;4825308;29;20041;-76
2022/07/27 06:29:40;;;;;;;4.35;1.73;;;14.60;99.90;;;;;;4840348;29;20482;-76
2022/07/27 06:32:06;;;;;;;6.88;2.10;;;14.70;99.90;;;;;;4851447;29;20098;-76
2022/07/27 06:34:32;;;;;;;7.05;1.73;;;14.80;99.90;;;;;;4827854;29;20406;-77
2022/07/27 06:36:59;;;;;;;5.57;1.40;;;14.80;99.90;;;;;;4843425;29;20582;-76
2022/07/27 06:39:25;;;;;;;4.88;1.55;;;14.80;99.90;;;;;;4845044;29;20057;-77
2022/07/27 06:41:51;;;;;;;7.22;2.15;;;14.90;99.90;;;;;;4845100;29;20406;-76
2022/07/27 06:44:17;;;;;;;6.28;1.75;;;14.90;99.90;;;;;;4844052;29;20133;-76
2022/07/27 06:46:43;;;;;;;6.47;1.83;;;15.00;99.90;;;;;;4830342;29;20053;-77
2022/07/27 06:49:09;;;;;;;7.30;1.85;;;15.00;99.90;;;;;;4828580;29;20046;-77
2022/07/27 06:51:34;;;;;;;6.65;2.00;;;15.00;99.90;;;;;;4829093;29;20412;-77
2022/07/27 06:54:00;;;;;;;5.28;2.30;;;15.10;99.90;;;;;;4858042;29;20044;-76
2022/07/27 06:56:26;;;;;;;5.05;1.70;;;15.20;99.90;;;;;;4850904;29;20044;-76
2022/07/27 06:58:52;;;;;;;6.68;2.05;;;15.20;99.90;;;;;;4843907;29;20390;-76
2022/07/27 07:01:17;;;;;;;6.57;1.80;;;15.20;99.90;;;;;;4840900;29;20240;-76
2022/07/27 07:03:43;;;;;;;7.95;2.22;;;15.30;99.90;;;;;;4826595;29;20482;-76
2022/07/27 07:06:09;;;;;;;9.43;1.83;;;15.40;99.90;;;;;;4828952;29;20054;-76
2022/07/27 07:08:35;;;;;;;7.18;2.40;;;15.40;99.90;;;;;;4857065;29;20046;-76
2022/07/27 07:11:01;;;;;;;6.80;1.70;;;15.40;99.90;;;;;;4847988;29;20042;-76
2022/07/27 07:13:26;;;;;;;5.50;2.00;;;15.40;99.90;;;;;;4855922;29;20042;-77
2022/07/27 07:15:52;;;;;;;9.00;2.00;;;15.40;99.90;;;;;;4841978;29;20038;-77
2022/07/27 07:18:18;;;;;;;7.82;1.90;;;15.50;99.90;;;;;;4843993;29;20056;-76
2022/07/27 07:20:44;;;;;;;8.15;1.60;;;15.80;99.90;;;;;;4852628;29;20077;-77
2022/07/27 07:23:10;;;;;;;8.30;1.67;;;16.30;99.90;;;;;;4844034;29;20053;-77
2022/07/27 07:25:37;;;;;;;9.27;2.15;;;16.80;99.90;;;;;;4849853;29;20057;-77
2022/07/27 07:28:04;;;;;;;5.70;2.10;;;17.30;99.90;;;;;;4859097;29;20049;-77
2022/07/27 07:30:29;;;;;;;10.85;2.20;;;17.80;99.90;;;;;;4851719;29;20103;-77
2022/07/27 07:32:55;;;;;;;11.13;1.92;;;18.20;99.90;;;;;;4827315;29;20037;-77
2022/07/27 07:35:21;;;;;;;6.05;1.50;;;18.40;99.90;;;;;;4829266;29;20034;-77
2022/07/27 07:37:47;;;;;;;5.10;1.58;;;18.60;99.90;;;;;;4830704;29;20384;-77
2022/07/27 07:40:13;;;;;;;5.63;1.65;;;18.80;99.90;;;;;;4856943;29;20041;-77
2022/07/27 07:43:00;;;;;;;9.85;2.20;;;19.00;99.90;;;;;;4856331;29;20045;-77
2022/07/27 07:45:27;;;;;;;6.55;1.80;;;19.10;99.90;;;;;;4859439;29;20494;-77
2022/07/27 07:47:53;;;;;;;10.05;1.70;;;19.10;99.90;;;;;;4837771;29;20140;-77
2022/07/27 07:50:19;;;;;;;10.13;2.17;;;19.20;99.90;;;;;;4847534;29;20586;-76
2022/07/27 07:52:52;;;;;;;6.18;1.88;;;19.20;99.90;;;;;;4856938;29;20101;-77
2022/07/27 07:55:19;;;;;;;6.60;1.65;;;19.30;99.90;;;;;;4836027;29;20037;-76
2022/07/27 07:57:45;;;;;;;7.20;1.95;;;19.40;99.90;;;;;;4827404;29;20113;-76
2022/07/27 08:00:11;;;;;;;6.68;1.85;;;19.50;99.90;;;;;;4826205;29;20041;-76
2022/07/27 08:02:47;;;;;;;6.47;1.50;;;19.50;99.90;;;;;;4842715;29;20093;-76
2022/07/27 08:05:13;;;;;;;;;;;19.60;99.90;;;;;;4836912;29;20037;-76
2022/07/27 08:07:40;;;;;;;6.28;1.50;;;19.70;99.90;;;;;;4850941;29;19980;-76
2022/07/27 08:10:07;;;;;;;6.10;1.65;;;19.90;99.90;;;;;;4845203;29;20049;-77
2022/07/27 08:12:35;;;;;;;7.32;1.52;;;20.10;99.90;;;;;;4842452;29;20037;-76
2022/07/27 08:15:01;;;;;;;6.05;1.40;;;20.10;99.70;;;;;;4855743;29;20050;-76
2022/07/27 08:17:26;;;;;;;7.95;2.00;;;20.10;99.30;;;;;;4840849;29;20110;-76
2022/07/27 08:19:52;;;;;;;6.03;1.40;;;20.10;98.40;;;;;;4827358;29;20034;-77
2022/07/27 08:22:18;;;;;;;6.50;1.70;;;20.20;98.90;;;;;;4857184;29;20088;-76
2022/07/27 08:24:43;;;;;;;7.57;1.48;;;20.00;98.10;;;;;;4835931;29;20046;-76
2022/07/27 08:27:09;;;;;;;6.57;1.52;;;20.10;98.10;;;;;;4840572;29;20055;-76
2022/07/27 08:29:35;;;;;;;7.15;1.52;;;20.20;97.40;;;;;;4827389;29;20056;-76
2022/07/27 08:32:00;;;;;;;6.50;1.75;;;20.30;97.20;;;;;;4827567;29;20049;-77
2022/07/27 08:34:26;;;;;;;6.63;1.50;;;20.50;96.20;;;;;;4860183;29;20105;-76
2022/07/27 08:36:52;;;;;;;4.18;1.20;;;20.60;95.70;;;;;;4841055;29;20509;-76
2022/07/27 08:39:17;;;;;;;4.05;1.20;;;20.60;95.40;;;;;;4832179;29;20038;-77
2022/07/27 08:41:43;;;;;;;5.60;1.13;;;20.70;95.20;;;;;;4867223;29;20049;-75
2022/07/27 08:44:12;;;;;;;4.38;1.52;;;20.70;94.50;;;;;;4820862;29;20444;-76
2022/07/27 08:46:40;;;;;;;4.97;1.85;;;20.50;93.70;;;;;;4829104;29;20121;-75
2022/07/27 08:49:07;;;;;;;3.78;1.40;;;20.20;94.40;;;;;;4843616;29;20049;-76
2022/07/27 08:51:33;;;;;;;4.68;1.42;;;20.20;94.50;;;;;;4844895;29;20125;-76
2022/07/27 08:54:00;;;;;;;7.75;1.80;;;20.30;94.00;;;;;;4843818;29;20046;-75
2022/07/27 08:56:26;;;;;;;7.18;1.60;;;20.50;94.60;;;;;;4859513;29;20081;-76
2022/07/27 08:58:52;;;;;;;5.57;1.60;;;20.40;94.80;;;;;;4850979;29;20084;-76
2022/07/27 09:01:18;;;;;;;18.77;2.05;;;20.40;94.70;;;;;;4857209;29;20110;-76
2022/07/27 09:03:44;;;;;;;5.20;1.33;;;20.40;94.20;;;;;;4864673;29;20041;-76
2022/07/27 09:06:10;;;;;;;7.78;1.48;;;20.30;94.10;;;;;;4851789;29;20043;-76
2022/07/27 09:08:37;;;;;;;7.28;1.35;;;20.20;93.90;;;;;;4839002;29;20041;-76
2022/07/27 09:11:14;;;;;;;9.48;1.40;;;20.30;94.20;;;;;;4860845;29;20104;-76
2022/07/27 09:13:41;;;;;;;3.53;1.10;;;20.60;93.80;;;;;;4854642;29;20049;-76
2022/07/27 09:16:08;;;;;;;6.05;1.30;;;20.80;93.20;;;;;;4846856;29;20088;-76
2022/07/27 09:18:38;;;;;;;9.55;1.55;;;21.10;93.40;;;;;;4844192;29;20451;-76
2022/07/27 09:21:16;;;;;;;14.27;1.52;;;21.20;92.80;;;;;;4841733;29;20098;-75
2022/07/27 09:23:53;;;;;;;4.43;0.95;;;21.10;90.80;;;;;;4851604;29;20046;-75
2022/07/27 09:26:25;;;;;;;5.05;1.33;;;20.90;91.50;;;;;;4852498;29;20106;-76
2022/07/27 09:29:07;;;;;;;4.15;1.00;;;20.80;91.20;;;;;;4845761;29;20052;-75
2022/07/27 09:31:41;;;;;;;3.15;1.10;;;20.50;90.20;;;;;;4858867;29;20077;-75
2022/07/27 09:34:07;;;;;;;5.70;1.02;;;20.40;91.60;;;;;;4857414;29;20054;-75
2022/07/27 09:36:51;;;;;;;3.08;1.30;;;20.50;91.80;;;;;;4869031;29;20082;-76
2022/07/27 09:39:19;;;;;;;5.53;1.20;;;20.50;91.30;;;;;;4854851;29;20042;-75
2022/07/27 09:41:48;;;;;;;4.80;1.15;;;20.70;92.10;;;;;;4838283;29;20072;-75
2022/07/27 09:44:14;;;;;;;3.65;1.40;;;20.90;91.90;;;;;;4876202;29;20044;-75
2022/07/27 09:46:42;;;;;;;3.63;1.00;;;21.00;91.80;;;;;;4831445;29;20049;-76
2022/07/27 09:49:32;;;;;;;5.15;1.10;;;21.00;90.70;;;;;;4860245;29;20099;-77
2022/07/27 09:52:00;;;;;;;3.90;1.13;;;20.80;90.00;;;;;;4846150;29;20045;-76
2022/07/27 09:54:27;;;;;;;2.80;1.17;;;20.50;90.60;;;;;;4861963;29;20037;-75
2022/07/27 09:57:00;;;;;;;5.55;1.38;;;20.40;90.90;;;;;;4832158;29;20069;-75
2022/07/27 09:59:27;;;;;;;5.18;1.20;;;20.20;91.30;;;;;;4839469;29;20042;-75
2022/07/27 10:01:54;;;;;;;8.07;1.27;;;20.00;92.20;;;;;;4845190;29;20094;-75
2022/07/27 10:04:21;;;;;;;5.47;1.30;;;19.70;93.00;;;;;;4853548;29;20046;-75
2022/07/27 10:06:47;;;;;;;4.13;1.23;;;19.60;93.90;;;;;;4824073;29;20110;-76
2022/07/27 10:09:13;;;;;;;4.95;1.40;;;19.40;94.20;;;;;;4851064;29;20046;-76
2022/07/27 10:11:39;;;;;;;2.95;1.00;;;19.20;94.30;;;;;;4857713;29;20057;-76
2022/07/27 10:14:06;;;;;;;6.68;1.58;;;19.10;94.80;;;;;;4842284;29;20509;-76
2022/07/27 10:16:33;;;;;;;6.47;1.42;;;19.00;95.10;;;;;;4846606;29;20052;-77
2022/07/27 10:19:02;;;;;;;4.60;1.60;;;19.10;95.30;;;;;;4842470;29;20038;-76
2022/07/27 10:21:28;;;;;;;6.45;1.45;;;19.20;95.10;;;;;;4843753;29;20038;-77
2022/07/27 10:23:58;;;;;;;3.55;1.00;;;19.20;95.40;;;;;;4853017;29;20042;-77
2022/07/27 10:26:24;;;;;;;5.07;1.13;;;19.40;95.00;;;;;;4861249;29;20038;-76
2022/07/27 10:28:51;;;;;;;6.20;1.48;;;19.40;95.30;;;;;;4845722;29;20391;-76
2022/07/27 10:31:19;;;;;;;3.88;1.27;;;19.40;94.90;;;;;;4841395;29;20049;-75
2022/07/27 10:33:47;;;;;;;3.90;1.17;;;19.50;94.90;;;;;;4842163;29;20056;-75
2022/07/27 10:36:24;;;;;;;3.38;1.15;;;19.60;95.00;;;;;;4834057;29;20049;-76
2022/07/27 10:38:55;;;;;;;9.82;1.20;;;19.60;95.40;;;;;;4845322;29;20068;-76
2022/07/27 10:41:33;;;;;;;7.13;1.65;;;19.70;95.00;;;;;;4856019;29;20220;-76
2022/07/27 10:44:17;;;;;;;7.05;1.50;;;19.60;95.40;;;;;;4848843;29;20042;-76
2022/07/27 10:46:45;;;;;;;5.53;1.30;;;19.50;95.40;;;;;;4838813;29;20042;-76
2022/07/27 10:49:26;;;;;;;5.75;1.20;;;19.50;94.80;;;;;;4841604;29;20041;-76
2022/07/27 10:51:52;;;;;;;7.90;1.45;;;19.40;94.80;;;;;;4839701;29;20045;-76
2022/07/27 10:54:33;;;;;;;4.82;1.05;;;19.40;94.90;;;;;;4848801;29;20053;-76
2022/07/27 10:57:00;;;;;;;5.18;1.10;;;19.40;94.60;;;;;;4850487;29;20194;-76
2022/07/27 10:59:38;;;;;;;6.82;1.20;;;19.50;95.10;;;;;;4872677;29;20052;-76
2022/07/27 11:02:08;;;;;;;5.70;1.27;;;19.70;94.20;;;;;;4855428;29;20072;-76
2022/07/27 11:04:46;;;;;;;2.47;0.85;;;19.70;94.10;;;;;;4851796;29;20046;-76
2022/07/27 11:07:16;;;;;;;3.58;1.20;;;19.80;94.60;;;;;;4839588;29;20052;-77
2022/07/27 11:09:42;;;;;;;2.88;1.13;;;19.80;94.00;;;;;;4849000;29;20138;-76
2022/07/27 11:12:10;;;;;;;2.90;1.05;;;19.90;93.80;;;;;;4847438;29;20053;-76
2022/07/27 11:14:53;;;;;;;5.03;1.08;;;20.00;93.30;;;;;;4848756;29;20383;-76
2022/07/27 11:17:21;;;;;;;2.55;1.10;;;20.00;93.00;;;;;;4844856;29;20084;-76
2022/07/27 11:19:59;;;;;;;3.30;1.15;;;20.10;93.20;;;;;;4844804;29;20057;-76
2022/07/27 11:22:37;;;;;;;4.47;1.42;;;20.20;92.10;;;;;;4844087;29;20041;-76
2022/07/27 11:25:04;;;;;;;2.90;0.80;;;20.10;91.90;;;;;;4858854;29;20045;-76
2022/07/27 11:27:29;;;;;;;2.97;0.90;;;20.20;92.70;;;;;;4851297;29;20530;-76
2022/07/27 11:29:56;;;;;;;2.85;0.93;;;20.20;92.50;;;;;;4854104;29;20046;-76
2022/07/27 11:32:22;;;;;;;4.15;1.38;;;20.20;92.00;;;;;;4847273;29;20060;-76
2022/07/27 11:34:48;;;;;;;3.17;1.00;;;20.40;91.50;;;;;;4851827;29;20454;-76
2022/07/27 11:37:18;;;;;;;4.30;1.08;;;20.50;91.80;;;;;;4838464;29;20575;-76
2022/07/27 11:39:47;;;;;;;2.85;1.52;;;20.50;91.70;;;;;;4853480;29;20056;-76
2022/07/27 11:42:17;;;;;;;6.35;1.30;;;20.60;91.20;;;;;;4834921;29;20034;-76
2022/07/27 11:44:44;;;;;;;12.07;1.10;;;20.60;90.80;;;;;;4840334;29;20132;-76
2022/07/27 11:47:18;;;;;;;5.22;1.35;;;20.50;91.70;;;;;;4828837;29;20446;-76
2022/07/27 11:49:44;;;;;;;2.92;1.00;;;20.50;91.60;;;;;;4855590;29;20045;-76
2022/07/27 11:52:10;;;;;;;4.05;1.05;;;20.50;91.70;;;;;;4840434;29;20042;-76
2022/07/27 11:54:40;;;;;;;4.70;1.08;;;20.70;92.10;;;;;;4836075;29;20037;-76
2022/07/27 11:57:12;;;;;;;3.03;1.17;;;20.90;92.30;;;;;;4834678;29;20045;-76
2022/07/27 11:59:40;;;;;;;4.57;1.20;;;21.00;92.10;;;;;;4859806;29;20050;-76
2022/07/27 12:02:12;;;;;;;3.30;0.90;;;21.10;91.30;;;;;;4841776;29;20520;-76
2022/07/27 12:04:43;;;;;;;3.58;1.42;;;21.10;90.10;;;;;;4851142;29;20037;-76
2022/07/27 12:07:15;;;;;;;6.82;1.42;;;21.10;90.20;;;;;;4834650;29;20072;-76
2022/07/27 12:09:47;;;;;;;4.97;1.27;;;21.10;90.60;;;;;;4844236;29;20042;-76
2022/07/27 12:12:35;;;;;;;5.38;1.25;;;21.20;90.80;;;;;;4837199;29;20049;-76
2022/07/27 12:15:12;;;;;;;3.97;1.33;;;21.20;90.70;;;;;;4855219;29;20053;-77
2022/07/27 12:17:40;;;;;;;4.80;1.13;;;21.20;90.20;;;;;;4841867;29;20064;-76
2022/07/27 12:20:13;;;;;;;3.13;1.10;;;21.00;91.00;;;;;;4813337;29;20132;-76
2022/07/27 12:22:45;;;;;;;5.45;1.60;;;20.90;91.20;;;;;;4858111;29;20185;-76
2022/07/27 12:25:17;;;;;;;4.32;1.48;;;20.90;91.30;;;;;;4856597;29;20612;-76
2022/07/27 12:28:04;;;;;;;7.55;1.58;;;20.70;91.40;;;;;;4852064;29;20097;-76
2022/07/27 12:30:44;;;;;;;9.45;1.40;;;20.70;91.00;;;;;;4834808;29;20042;-76
2022/07/27 12:33:35;;;;;;;3.70;1.20;;;20.60;91.50;;;;;;4851681;29;20502;-76
2022/07/27 12:36:04;;;;;;;3.75;1.08;;;20.70;91.50;;;;;;4863155;29;20058;-76
2022/07/27 12:38:44;;;;;;;3.88;1.20;;;20.60;91.60;;;;;;4842877;29;20060;-76
2022/07/27 12:41:10;;;;;;;2.55;1.00;;;20.60;90.80;;;;;;4857666;29;20046;-76
2022/07/27 12:43:36;;;;;;;1.45;0.75;;;20.60;90.00;;;;;;4832933;29;20045;-76
2022/07/27 12:46:12;;;;;;;3.20;0.98;;;20.70;88.20;;;;;;4848974;29;20106;-76
2022/07/27 12:48:40;;;;;;;4.40;1.10;;;20.70;85.00;;;;;;4856114;29;20049;-76
2022/07/27 12:51:08;;;;;;;2.78;1.08;;;20.70;84.40;;;;;;4861830;29;20037;-76
2022/07/27 12:53:35;;;;;;;3.70;0.90;;;20.70;82.20;;;;;;4859279;29;20045;-76
2022/07/27 12:56:04;;;;;;;3.42;0.93;;;20.60;83.00;;;;;;4846680;29;20034;-75
2022/07/27 12:58:31;;;;;;;2.38;0.80;;;20.70;80.70;;;;;;4844123;29;20073;-76
2022/07/27 13:00:57;;;;;;;3.05;1.00;;;20.70;81.50;;;;;;4830671;29;20608;-76
2022/07/27 13:03:23;;;;;;;7.15;1.00;;;20.80;82.30;;;;;;4861101;29;20041;-75
2022/07/27 13:05:48;;;;;;;2.45;0.80;;;20.80;83.70;;;;;;4835943;29;20041;-76
2022/07/27 13:08:14;;;;;;;5.25;1.17;;;21.10;84.70;;;;;;4844622;29;20053;-76
2022/07/27 13:10:40;;;;;;;2.33;1.00;;;21.40;85.70;;;;;;4845659;29;20121;-77